Time;durP1;ratioP1;P1;durP2;ratioP2;P2;SDS_P1;SDS_P2;PMS_P1;PMS_P2;Temp;Humidity;BMP_temperature;BMP_pressure;BME280_temperature;BME280_humidity;BME280_pressure;Samples;Min_cycle;Max_cycle;Signal;HPM_P1;HPM_P2
2023/04/26 00:00:00;;;;;;;12.88;8.88;;;;;;;8.63;79.51;99586.28;333381;29;4983;-75
2023/04/26 00:00:12;;;;;;;14.95;9.82;;;;;;;8.58;79.75;99579.50;332898;29;5140;-75
2023/04/26 00:00:24;;;;;;;17.52;11.25;;;;;;;8.58;79.59;99583.81;330207;29;18407;-74
2023/04/26 00:00:36;;;;;;;17.25;12.13;;;;;;;8.59;79.77;99576.03;333247;29;4509;-74
2023/04/26 00:00:48;;;;;;;16.40;11.80;;;;;;;8.59;79.61;99580.34;328729;29;18169;-74
2023/04/26 00:01:03;;;;;;;12.82;10.35;;;;;;;8.60;79.59;99582.88;330618;29;5389;-73
2023/04/26 00:01:16;;;;;;;12.30;9.48;;;;;;;8.59;79.44;99580.34;328900;29;17830;-74
2023/04/26 00:01:28;;;;;;;13.65;9.55;;;;;;;8.56;79.64;99583.88;329051;29;17780;-74
2023/04/26 00:01:41;;;;;;;14.27;9.52;;;;;;;8.55;79.82;99578.72;333019;29;5156;-74
2023/04/26 00:01:53;;;;;;;14.40;9.68;;;;;;;8.54;79.85;99582.22;327810;29;17831;-74
2023/04/26 00:02:05;;;;;;;13.68;9.32;;;;;;;8.52;79.77;99584.81;333533;29;5384;-73
2023/04/26 00:02:17;;;;;;;12.65;9.18;;;;;;;8.52;79.60;99584.81;333209;29;4832;-73
2023/04/26 00:02:29;;;;;;;13.65;9.40;;;;;;;8.51;80.19;99577.09;330839;29;17995;-73
2023/04/26 00:02:42;;;;;;;14.23;9.70;;;;;;;8.49;79.83;99574.56;334275;29;4564;-74
2023/04/26 00:02:54;;;;;;;14.20;9.85;;;;;;;8.50;79.95;99580.59;332277;28;19234;-74
2023/04/26 00:03:06;;;;;;;13.35;9.70;;;;;;;8.50;80.02;99585.75;335494;28;4592;-73
2023/04/26 00:03:19;;;;;;;12.80;9.50;;;;;;;8.50;79.90;99585.75;332729;28;18267;-73
2023/04/26 00:03:31;;;;;;;13.98;9.48;;;;;;;8.51;79.95;99582.28;334599;28;4562;-73
2023/04/26 00:03:44;;;;;;;13.90;9.13;;;;;;;8.52;79.88;99584.00;332214;28;18276;-74
2023/04/26 00:03:56;;;;;;;13.88;8.82;;;;;;;8.49;79.84;99577.16;335776;28;5915;-74
2023/04/26 00:04:11;;;;;;;13.23;8.80;;;;;;;8.49;79.93;99582.34;331594;29;16584;-73
2023/04/26 00:04:24;;;;;;;12.55;8.95;;;;;;;8.49;79.77;99581.47;331978;29;18124;-74
2023/04/26 00:04:39;;;;;;;13.07;8.95;;;;;;;8.45;79.95;99585.88;333796;29;4555;-74
2023/04/26 00:04:56;;;;;;;12.73;8.63;;;;;;;8.46;80.29;99589.31;330755;29;18880;-73
2023/04/26 00:05:09;;;;;;;12.63;8.85;;;;;;;8.46;80.22;99581.56;330232;29;18835;-73
2023/04/26 00:05:24;;;;;;;11.93;8.75;;;;;;;8.44;80.29;99579.00;333433;29;4680;-73
2023/04/26 00:05:36;;;;;;;12.95;8.43;;;;;;;8.47;80.05;99575.47;331806;29;18176;-73
2023/04/26 00:05:49;;;;;;;13.93;8.43;;;;;;;8.47;79.97;99580.66;330772;29;18089;-74
2023/04/26 00:06:04;;;;;;;14.00;8.65;;;;;;;8.48;80.12;99583.22;334243;29;4860;-73
2023/04/26 00:06:16;;;;;;;14.50;8.80;;;;;;;8.49;79.98;99578.88;331861;29;18981;-74
2023/04/26 00:06:28;;;;;;;14.82;8.65;;;;;;;8.50;79.87;99585.75;331659;29;16487;-73
2023/04/26 00:06:40;;;;;;;14.45;8.57;;;;;;;8.50;80.01;99586.59;334127;29;4615;-73
2023/04/26 00:06:52;;;;;;;13.13;8.43;;;;;;;8.50;79.76;99584.03;334107;29;4551;-74
2023/04/26 00:07:05;;;;;;;14.52;8.80;;;;;;;8.50;79.49;99586.59;330959;29;18620;-74
2023/04/26 00:07:17;;;;;;;13.80;8.77;;;;;;;8.51;79.53;99582.28;332894;29;4667;-73
2023/04/26 00:07:29;;;;;;;11.98;8.40;;;;;;;8.49;79.68;99584.03;330728;29;18253;-74
2023/04/26 00:07:42;;;;;;;12.75;8.60;;;;;;;8.51;79.78;99582.28;333261;29;4609;-75
2023/04/26 00:07:54;;;;;;;13.43;8.80;;;;;;;8.49;79.62;99582.34;330743;29;17926;-74
2023/04/26 00:08:06;;;;;;;14.13;8.98;;;;;;;8.50;79.84;99583.19;333602;29;5868;-74
2023/04/26 00:08:18;;;;;;;14.85;9.20;;;;;;;8.51;79.69;99587.44;330099;29;17605;-73
2023/04/26 00:08:30;;;;;;;14.38;9.35;;;;;;;8.52;79.50;99589.16;333640;29;5766;-73
2023/04/26 00:08:42;;;;;;;15.75;9.15;;;;;;;8.49;79.77;99584.03;334609;29;5259;-74
2023/04/26 00:08:54;;;;;;;16.15;9.55;;;;;;;8.46;79.97;99581.56;331604;28;19640;-74
2023/04/26 00:09:09;;;;;;;13.98;9.52;;;;;;;8.47;80.16;99585.81;334297;29;5555;-74
2023/04/26 00:09:24;;;;;;;13.52;9.57;;;;;;;8.47;79.96;99585.81;332463;28;17702;-74
2023/04/26 00:09:36;;;;;;;14.52;9.43;;;;;;;8.44;79.92;99585.91;334032;28;5963;-73
2023/04/26 00:09:48;;;;;;;14.88;9.07;;;;;;;8.45;79.85;99592.78;331261;29;10112;-74
2023/04/26 00:10:00;;;;;;;13.35;8.80;;;;;;;8.45;80.08;99590.19;334587;29;5369;-74
2023/04/26 00:10:12;;;;;;;12.60;8.57;;;;;;;8.46;79.87;99587.56;333617;29;5157;-74
2023/04/26 00:10:24;;;;;;;12.85;8.52;;;;;;;8.45;79.65;99587.59;331724;28;18877;-74
2023/04/26 00:10:36;;;;;;;12.50;8.57;;;;;;;8.48;79.67;99587.53;334444;29;5562;-74
2023/04/26 00:10:48;;;;;;;14.20;8.85;;;;;;;8.46;79.71;99584.16;330367;29;18286;-74
2023/04/26 00:11:00;;;;;;;12.98;8.57;;;;;;;8.48;79.92;99587.53;334475;29;4494;-74
2023/04/26 00:11:12;;;;;;;13.68;8.15;;;;;;;8.49;79.92;99586.63;335110;28;4803;-74
2023/04/26 00:11:24;;;;;;;12.00;7.75;;;;;;;8.50;79.81;99590.94;332033;28;18029;-74
2023/04/26 00:11:36;;;;;;;13.65;8.10;;;;;;;8.48;79.63;99584.94;334149;29;4666;-73
2023/04/26 00:11:48;;;;;;;13.23;8.45;;;;;;;8.48;79.59;99590.13;332023;28;18218;-74
2023/04/26 00:12:00;;;;;;;14.15;8.70;;;;;;;8.49;79.40;99589.22;334876;28;4524;-74
2023/04/26 00:12:13;;;;;;;13.20;8.80;;;;;;;8.46;79.51;99589.31;333926;28;5307;-74
2023/04/26 00:12:25;;;;;;;12.80;8.60;;;;;;;8.44;79.63;99588.50;334877;28;18458;-73
2023/04/26 00:12:37;;;;;;;12.70;8.50;;;;;;;8.42;79.75;99590.28;335252;28;4836;-74
2023/04/26 00:12:49;;;;;;;13.38;8.55;;;;;;;8.40;79.77;99585.94;333620;28;17245;-73
2023/04/26 00:13:01;;;;;;;13.40;8.57;;;;;;;8.39;79.70;99589.44;333767;29;5361;-73
2023/04/26 00:13:12;;;;;;;13.45;8.55;;;;;;;8.39;79.89;99588.56;334656;29;5454;-74
2023/04/26 00:13:25;;;;;;;15.60;9.13;;;;;;;8.37;79.84;99591.22;331910;29;18428;-74
2023/04/26 00:13:37;;;;;;;15.85;9.30;;;;;;;8.37;79.67;99586.03;333525;29;4699;-74
2023/04/26 00:13:49;;;;;;;14.40;9.38;;;;;;;8.38;79.61;99587.72;330452;29;18275;-74
2023/04/26 00:14:01;;;;;;;13.50;8.70;;;;;;;8.38;79.71;99585.13;333292;29;4722;-73
2023/04/26 00:14:16;;;;;;;14.32;8.60;;;;;;;8.37;79.55;99586.03;331937;29;10043;-74
2023/04/26 00:14:28;;;;;;;14.07;8.98;;;;;;;8.37;79.48;99587.75;331450;29;10220;-75
2023/04/26 00:14:40;;;;;;;14.10;9.23;;;;;;;8.37;79.44;99586.03;332526;29;4658;-75
2023/04/26 00:14:52;;;;;;;14.30;9.15;;;;;;;8.37;79.48;99590.34;332877;29;5625;-74
2023/04/26 00:15:04;;;;;;;13.57;9.23;;;;;;;8.37;79.52;99588.63;330540;29;16254;-74
2023/04/26 00:15:16;;;;;;;12.50;9.13;;;;;;;8.36;79.52;99594.69;331588;29;4688;-74
2023/04/26 00:15:28;;;;;;;13.38;9.35;;;;;;;8.37;79.47;99595.53;330218;29;17480;-74
2023/04/26 00:15:40;;;;;;;13.27;8.88;;;;;;;8.39;79.71;99592.03;332277;29;4503;-74
2023/04/26 00:15:52;;;;;;;12.57;8.18;;;;;;;8.39;79.67;99594.63;334684;29;4626;-73
2023/04/26 00:16:04;;;;;;;13.57;7.85;;;;;;;8.39;79.61;99589.44;332769;28;18031;-74
2023/04/26 00:16:17;;;;;;;13.13;7.90;;;;;;;8.42;79.32;99587.69;335929;28;5130;-73
2023/04/26 00:16:29;;;;;;;12.88;8.82;;;;;;;8.44;79.42;99585.91;333369;28;18437;-74
2023/04/26 00:16:41;;;;;;;11.88;9.25;;;;;;;8.43;79.35;99591.97;335314;28;4701;-73
2023/04/26 00:16:53;;;;;;;12.60;9.38;;;;;;;8.43;79.33;99594.56;330267;29;10131;-73
2023/04/26 00:17:05;;;;;;;13.77;9.05;;;;;;;8.42;79.24;99592.88;332071;29;5307;-73
2023/04/26 00:17:17;;;;;;;14.68;8.57;;;;;;;8.37;79.10;99591.22;333481;29;4940;-73
2023/04/26 00:17:30;;;;;;;14.52;8.25;;;;;;;8.32;79.22;99600.81;331110;28;18330;-73
2023/04/26 00:17:42;;;;;;;14.75;8.00;;;;;;;8.30;79.06;99600.00;336025;28;5448;-75
2023/04/26 00:17:55;;;;;;;13.88;8.07;;;;;;;8.32;79.41;99597.41;332262;28;17617;-74
2023/04/26 00:18:06;;;;;;;13.43;7.88;;;;;;;8.32;79.21;99598.25;335573;28;5421;-74
2023/04/26 00:18:19;;;;;;;12.55;7.68;;;;;;;8.33;79.28;99599.97;332042;28;18426;-74
2023/04/26 00:18:31;;;;;;;11.98;7.53;;;;;;;8.35;79.09;99593.00;334700;29;5357;-73
2023/04/26 00:18:45;;;;;;;11.88;7.45;;;;;;;8.36;79.04;99594.69;332864;29;4673;-74
2023/04/26 00:18:56;;;;;;;11.27;7.45;;;;;;;8.36;78.98;99599.88;329916;29;18236;-74
2023/04/26 00:19:09;;;;;;;11.55;7.88;;;;;;;8.35;79.06;99597.31;331319;29;18405;-74
2023/04/26 00:19:26;;;;;;;12.18;7.80;;;;;;;8.36;78.83;99596.44;334488;29;4906;-73
2023/04/26 00:19:38;;;;;;;11.90;7.25;;;;;;;8.33;78.68;99594.78;329881;29;17581;-74
2023/04/26 00:19:50;;;;;;;11.70;7.50;;;;;;;8.33;78.60;99594.78;332968;29;4624;-74
2023/04/26 00:20:05;;;;;;;12.63;7.45;;;;;;;8.33;78.76;99599.97;332457;29;4596;-74
2023/04/26 00:20:17;;;;;;;11.40;7.07;;;;;;;8.31;78.83;99596.56;331043;29;19061;-74
2023/04/26 00:20:29;;;;;;;12.30;7.38;;;;;;;8.29;78.73;99593.16;332049;29;18062;-73
2023/04/26 00:20:41;;;;;;;14.82;7.97;;;;;;;8.31;78.54;99595.69;334401;29;5538;-73
2023/04/26 00:20:53;;;;;;;16.92;8.73;;;;;;;8.33;78.63;99596.50;331417;29;18222;-74
2023/04/26 00:21:05;;;;;;;15.88;9.00;;;;;;;8.34;78.66;99591.28;333976;29;4590;-74
2023/04/26 00:21:17;;;;;;;14.43;8.68;;;;;;;8.35;78.63;99598.19;333134;29;4800;-73
2023/04/26 00:21:30;;;;;;;12.82;8.85;;;;;;;8.36;78.74;99589.50;330342;29;18539;-73
2023/04/26 00:21:42;;;;;;;13.98;10.07;;;;;;;8.38;78.38;99595.50;334112;29;5182;-74
2023/04/26 00:21:54;;;;;;;15.93;12.13;;;;;;;8.38;78.29;99598.09;331619;28;18372;-73
2023/04/26 00:22:07;;;;;;;16.95;12.88;;;;;;;8.39;78.41;99591.16;335556;28;4670;-74
2023/04/26 00:22:19;;;;;;;16.50;12.48;;;;;;;8.38;78.40;99592.91;331487;28;18330;-74
2023/04/26 00:22:31;;;;;;;15.20;11.15;;;;;;;8.40;78.40;99593.72;335727;28;6416;-73
2023/04/26 00:22:43;;;;;;;15.10;10.80;;;;;;;8.39;78.46;99594.63;332917;28;10029;-74
2023/04/26 00:22:55;;;;;;;14.90;10.82;;;;;;;8.38;78.34;99592.91;334701;29;4621;-73
2023/04/26 00:23:09;;;;;;;15.13;11.45;;;;;;;8.39;78.53;99591.16;334640;28;4607;-74
2023/04/26 00:23:21;;;;;;;14.52;10.90;;;;;;;8.38;78.23;99598.09;332360;28;17703;-73
2023/04/26 00:23:35;;;;;;;12.90;9.03;;;;;;;8.38;78.32;99595.50;331845;29;8646;-73
2023/04/26 00:23:47;;;;;;;10.55;7.72;;;;;;;8.38;78.29;99598.09;333624;29;4707;-74
2023/04/26 00:23:59;;;;;;;11.15;7.97;;;;;;;8.40;78.22;99591.13;331405;29;17792;-74
2023/04/26 00:24:11;;;;;;;12.02;8.30;;;;;;;8.40;78.37;99591.13;332187;29;4610;-74
2023/04/26 00:24:23;;;;;;;13.07;8.98;;;;;;;8.40;78.27;99595.47;330856;29;9030;-73
2023/04/26 00:24:39;;;;;;;14.98;10.68;;;;;;;8.39;78.54;99594.63;331090;29;17315;-73
2023/04/26 00:24:50;;;;;;;15.65;11.10;;;;;;;8.39;78.52;99591.16;332900;29;5507;-74
2023/04/26 00:25:03;;;;;;;14.98;10.43;;;;;;;8.37;78.50;99591.22;334482;29;4573;-75
2023/04/26 00:25:15;;;;;;;13.43;9.70;;;;;;;8.34;78.50;99595.63;329692;29;18216;-74
2023/04/26 00:25:26;;;;;;;12.77;8.65;;;;;;;8.33;78.74;99599.09;332732;29;4902;-74
2023/04/26 00:25:39;;;;;;;12.00;8.00;;;;;;;8.33;78.92;99599.97;330502;29;18127;-73
2023/04/26 00:25:50;;;;;;;10.77;7.63;;;;;;;8.30;78.83;99587.06;334320;29;5100;-74
2023/04/26 00:26:03;;;;;;;10.52;7.60;;;;;;;8.28;78.90;99594.03;334314;29;4831;-74
2023/04/26 00:26:15;;;;;;;12.05;7.90;;;;;;;8.28;79.14;99591.44;332133;28;17713;-73
2023/04/26 00:26:27;;;;;;;12.18;7.75;;;;;;;8.27;79.20;99589.75;334212;28;4551;-73
2023/04/26 00:26:39;;;;;;;11.65;7.85;;;;;;;8.26;79.05;99592.38;331576;29;18011;-73
2023/04/26 00:26:54;;;;;;;11.13;7.70;;;;;;;8.23;78.92;99593.31;334201;29;4747;-74
2023/04/26 00:27:09;;;;;;;12.73;7.63;;;;;;;8.22;79.32;99591.59;331544;29;17844;-74
2023/04/26 00:27:21;;;;;;;14.15;7.38;;;;;;;8.23;79.24;99595.00;330358;29;18143;-73
2023/04/26 00:27:33;;;;;;;13.30;7.30;;;;;;;8.20;79.01;99590.78;333853;29;4667;-74
2023/04/26 00:27:45;;;;;;;11.77;7.25;;;;;;;8.19;78.93;99589.09;331304;29;18064;-74
2023/04/26 00:27:57;;;;;;;11.73;7.45;;;;;;;8.21;79.11;99589.91;334315;29;4572;-74
2023/04/26 00:28:09;;;;;;;11.75;7.57;;;;;;;8.21;79.19;99589.91;331440;29;18382;-74
2023/04/26 00:28:20;;;;;;;11.88;7.60;;;;;;;8.21;79.28;99597.66;333746;29;4630;-75
2023/04/26 00:28:33;;;;;;;12.38;7.68;;;;;;;8.22;79.00;99596.75;334216;29;4596;-74
2023/04/26 00:28:45;;;;;;;11.85;7.53;;;;;;;8.23;79.30;99597.59;331596;29;18178;-74
2023/04/26 00:28:57;;;;;;;13.07;7.90;;;;;;;8.22;79.08;99596.75;334231;29;4582;-74
2023/04/26 00:29:08;;;;;;;12.43;7.90;;;;;;;8.23;79.28;99588.13;330344;29;16038;-75
2023/04/26 00:29:21;;;;;;;11.93;7.78;;;;;;;8.22;79.35;99589.00;332754;29;4660;-75
2023/04/26 00:29:33;;;;;;;12.50;7.95;;;;;;;8.21;79.77;99597.66;333000;29;8897;-74
2023/04/26 00:29:45;;;;;;;13.45;8.10;;;;;;;8.21;79.79;99589.91;331887;29;17977;-73
2023/04/26 00:29:57;;;;;;;13.65;8.18;;;;;;;8.21;79.54;99592.47;334736;29;4497;-75
2023/04/26 00:30:10;;;;;;;13.40;7.90;;;;;;;8.17;80.01;99593.44;331612;29;18382;-73
2023/04/26 00:30:21;;;;;;;13.65;7.93;;;;;;;8.18;79.80;99589.94;334756;29;4754;-74
2023/04/26 00:30:40;;;;;;;12.80;7.80;;;;;;;8.22;79.72;99599.34;329066;29;15774;-74
2023/04/26 00:30:52;;;;;;;12.27;7.50;;;;;;;8.22;79.50;99591.59;333191;29;17044;-74
2023/04/26 00:31:04;;;;;;;12.85;7.55;;;;;;;8.21;79.44;99600.25;331623;29;16299;-74
2023/04/26 00:31:16;;;;;;;13.35;7.88;;;;;;;8.20;79.45;99594.19;334562;29;4645;-74
2023/04/26 00:31:28;;;;;;;12.98;7.72;;;;;;;8.22;79.54;99598.50;334623;28;5456;-74
2023/04/26 00:31:40;;;;;;;12.90;7.32;;;;;;;8.23;79.36;99597.59;332381;28;17741;-74
2023/04/26 00:31:52;;;;;;;12.40;7.13;;;;;;;8.23;79.50;99588.13;335405;28;4520;-74
2023/04/26 00:32:04;;;;;;;11.25;7.07;;;;;;;8.21;79.38;99587.31;332437;28;18180;-74
2023/04/26 00:32:16;;;;;;;12.63;7.20;;;;;;;8.20;79.49;99590.78;335924;28;4563;-73
2023/04/26 00:32:29;;;;;;;13.85;7.65;;;;;;;8.20;79.55;99596.78;333094;28;9044;-74
2023/04/26 00:32:41;;;;;;;14.13;7.82;;;;;;;8.19;79.50;99596.84;335009;28;4748;-74
2023/04/26 00:32:53;;;;;;;11.30;7.50;;;;;;;8.15;79.72;99590.88;332988;28;16201;-74
2023/04/26 00:33:06;;;;;;;11.80;7.68;;;;;;;8.14;79.75;99594.34;335850;28;4589;-73
2023/04/26 00:33:18;;;;;;;12.13;7.93;;;;;;;8.11;79.69;99593.56;335966;28;4573;-74
2023/04/26 00:33:30;;;;;;;11.75;7.75;;;;;;;8.10;79.92;99597.06;332392;28;17757;-73
2023/04/26 00:33:43;;;;;;;10.75;7.32;;;;;;;8.10;79.83;99591.88;335346;28;5523;-75
2023/04/26 00:33:55;;;;;;;11.57;7.30;;;;;;;8.09;80.02;99596.22;333230;28;17760;-74
2023/04/26 00:34:07;;;;;;;12.53;7.50;;;;;;;8.09;80.15;99595.34;335580;28;5035;-74
2023/04/26 00:34:19;;;;;;;12.25;7.57;;;;;;;8.07;79.93;99597.09;330993;29;16616;-75
2023/04/26 00:34:36;;;;;;;11.30;7.38;;;;;;;8.08;80.00;99598.81;332592;29;5609;-74
2023/04/26 00:34:48;;;;;;;11.07;7.22;;;;;;;8.08;80.10;99596.25;329209;29;17739;-75
2023/04/26 00:35:03;;;;;;;12.02;7.40;;;;;;;8.04;80.00;99592.03;333485;29;4562;-74
2023/04/26 00:35:15;;;;;;;12.75;7.50;;;;;;;8.00;79.77;99593.81;330716;29;17967;-75
2023/04/26 00:35:27;;;;;;;12.82;7.25;;;;;;;8.02;80.17;99591.22;332926;29;4865;-74
2023/04/26 00:35:39;;;;;;;12.38;7.38;;;;;;;7.99;79.88;99592.97;330557;29;16678;-74
2023/04/26 00:35:51;;;;;;;12.90;7.38;;;;;;;8.02;79.82;99588.63;333286;29;4698;-74
2023/04/26 00:36:03;;;;;;;11.93;7.25;;;;;;;8.03;80.45;99591.19;334485;29;5163;-75
2023/04/26 00:36:18;;;;;;;12.30;7.20;;;;;;;8.03;79.67;99596.34;331390;29;18166;-74
2023/04/26 00:36:31;;;;;;;12.35;7.15;;;;;;;8.04;79.47;99594.59;331814;29;18926;-73
2023/04/26 00:36:43;;;;;;;12.55;7.20;;;;;;;8.05;79.65;99593.72;334712;28;4524;-74
2023/04/26 00:36:55;;;;;;;13.00;7.32;;;;;;;8.02;79.63;99594.63;332203;28;17976;-74
2023/04/26 00:37:07;;;;;;;13.73;7.78;;;;;;;7.99;79.93;99595.56;335432;28;4750;-74
2023/04/26 00:37:20;;;;;;;12.35;7.85;;;;;;;8.02;80.25;99593.78;332575;28;16900;-74
2023/04/26 00:37:32;;;;;;;12.70;7.78;;;;;;;8.04;80.04;99592.03;334898;28;5070;-74
2023/04/26 00:37:44;;;;;;;13.43;8.07;;;;;;;8.03;79.96;99596.34;331904;29;16227;-74
2023/04/26 00:37:56;;;;;;;12.18;8.02;;;;;;;8.03;80.08;99596.34;335493;28;4689;-74
2023/04/26 00:38:07;;;;;;;11.75;7.65;;;;;;;8.01;79.72;99590.38;335827;28;4694;-73
2023/04/26 00:38:19;;;;;;;11.38;7.35;;;;;;;7.99;79.55;99589.53;331647;29;18232;-73
2023/04/26 00:38:31;;;;;;;11.32;7.80;;;;;;;7.99;79.86;99595.56;334611;29;4794;-74
2023/04/26 00:38:44;;;;;;;10.63;7.80;;;;;;;7.99;79.78;99600.75;333096;28;9123;-74
2023/04/26 00:38:56;;;;;;;11.80;8.02;;;;;;;8.00;79.66;99601.59;334559;29;4510;-75
2023/04/26 00:39:09;;;;;;;11.63;7.72;;;;;;;7.97;80.06;99592.16;332368;28;9998;-74
2023/04/26 00:39:21;;;;;;;11.95;7.80;;;;;;;7.98;79.95;99599.03;334796;28;17671;-73
2023/04/26 00:39:33;;;;;;;11.90;7.75;;;;;;;7.98;79.51;99591.25;335745;28;5288;-74
2023/04/26 00:39:46;;;;;;;11.13;7.35;;;;;;;7.99;79.79;99590.38;331947;28;17535;-74
2023/04/26 00:39:58;;;;;;;9.65;6.80;;;;;;;8.00;79.69;99591.22;334311;28;6099;-74
2023/04/26 00:40:11;;;;;;;9.57;6.88;;;;;;;8.01;79.85;99592.94;332216;28;18166;-74
2023/04/26 00:40:23;;;;;;;9.52;7.30;;;;;;;8.00;79.93;99592.06;335784;28;4552;-74
2023/04/26 00:40:35;;;;;;;10.85;7.65;;;;;;;8.00;79.50;99584.31;332375;28;19053;-75
2023/04/26 00:40:47;;;;;;;11.77;7.28;;;;;;;8.01;79.73;99587.78;335239;28;4571;-74
2023/04/26 00:40:58;;;;;;;11.85;7.05;;;;;;;8.02;79.54;99588.63;333276;28;11477;-74
2023/04/26 00:41:11;;;;;;;12.75;7.53;;;;;;;8.00;79.50;99592.06;336267;28;5384;-73
2023/04/26 00:41:23;;;;;;;12.07;7.60;;;;;;;7.99;79.43;99592.13;335563;28;7027;-73
2023/04/26 00:41:35;;;;;;;11.80;7.35;;;;;;;7.98;79.98;99591.25;332270;28;18947;-75
2023/04/26 00:41:47;;;;;;;10.85;7.10;;;;;;;7.99;79.41;99590.38;333272;28;5029;-73
2023/04/26 00:41:59;;;;;;;10.25;7.10;;;;;;;8.02;79.33;99596.38;331868;28;5695;-74
2023/04/26 00:42:11;;;;;;;10.15;6.93;;;;;;;8.02;79.59;99593.78;334747;28;4707;-74
2023/04/26 00:42:23;;;;;;;10.50;6.90;;;;;;;8.02;79.43;99593.78;334395;28;4687;-74
2023/04/26 00:42:39;;;;;;;11.80;6.88;;;;;;;8.00;79.57;99594.66;332403;28;19006;-74
2023/04/26 00:42:58;;;;;;;12.63;7.28;;;;;;;7.98;79.85;99593.84;333030;28;17941;-74
2023/04/26 00:43:10;;;;;;;12.60;7.32;;;;;;;7.96;79.34;99590.44;333175;28;18792;-74
2023/04/26 00:43:23;;;;;;;13.10;7.70;;;;;;;7.93;79.55;99595.72;335059;28;4536;-74
2023/04/26 00:43:35;;;;;;;13.30;7.85;;;;;;;7.91;79.80;99594.91;331051;28;17972;-74
2023/04/26 00:43:47;;;;;;;12.30;7.70;;;;;;;7.90;79.78;99593.19;334782;29;4854;-74
2023/04/26 00:43:59;;;;;;;12.13;7.68;;;;;;;7.92;80.20;99588.81;332405;28;16255;-73
2023/04/26 00:44:11;;;;;;;11.40;7.55;;;;;;;7.93;80.04;99594.88;335806;28;4986;-73
2023/04/26 00:44:23;;;;;;;11.82;7.30;;;;;;;7.91;79.77;99594.91;335576;28;5590;-74
2023/04/26 00:44:35;;;;;;;13.05;7.53;;;;;;;7.90;80.08;99593.19;331494;28;17802;-75
2023/04/26 00:44:49;;;;;;;13.27;7.72;;;;;;;7.88;79.92;99597.53;334502;28;5512;-74
2023/04/26 00:45:01;;;;;;;12.68;7.40;;;;;;;7.85;79.69;99595.03;332665;28;18230;-73
2023/04/26 00:45:13;;;;;;;11.57;7.03;;;;;;;7.85;79.79;99592.44;335880;28;5481;-74
2023/04/26 00:45:25;;;;;;;11.35;7.55;;;;;;;7.82;80.49;99597.69;332726;28;18140;-75
2023/04/26 00:45:38;;;;;;;12.20;8.07;;;;;;;7.76;80.41;99592.63;335601;28;5417;-73
2023/04/26 00:45:50;;;;;;;11.55;8.10;;;;;;;7.74;80.50;99590.06;332539;28;18288;-74
2023/04/26 00:46:03;;;;;;;11.20;8.00;;;;;;;7.73;80.44;99590.97;335706;28;5275;-74
2023/04/26 00:46:15;;;;;;;10.88;7.80;;;;;;;7.74;80.56;99591.81;333633;28;16584;-74
2023/04/26 00:46:28;;;;;;;12.55;7.95;;;;;;;7.72;80.30;99591.00;335164;28;5085;-74
2023/04/26 00:46:40;;;;;;;13.75;8.27;;;;;;;7.70;80.65;99587.59;333224;28;18026;-74
2023/04/26 00:46:52;;;;;;;12.00;7.90;;;;;;;7.70;80.60;99592.78;335162;28;4663;-74
2023/04/26 00:47:05;;;;;;;10.02;7.70;;;;;;;7.71;80.41;99594.50;331411;28;17752;-74
2023/04/26 00:47:17;;;;;;;10.77;7.78;;;;;;;7.70;80.48;99600.53;336077;28;4698;-74
2023/04/26 00:47:29;;;;;;;12.20;8.15;;;;;;;7.69;80.94;99598.84;331621;28;16500;-73
2023/04/26 00:47:42;;;;;;;11.45;7.78;;;;;;;7.67;80.73;99598.03;334550;28;5337;-74
2023/04/26 00:47:54;;;;;;;11.35;7.70;;;;;;;7.65;80.71;99592.88;332342;28;10513;-74
2023/04/26 00:48:06;;;;;;;12.15;7.90;;;;;;;7.65;80.82;99590.28;337074;28;4499;-74
2023/04/26 00:48:19;;;;;;;12.75;8.23;;;;;;;7.63;80.92;99593.81;335464;28;4657;-74
2023/04/26 00:48:32;;;;;;;12.63;8.13;;;;;;;7.63;81.10;99591.22;331609;28;17964;-74
2023/04/26 00:48:45;;;;;;;12.85;7.97;;;;;;;7.64;80.69;99592.91;329704;28;17091;-74
2023/04/26 00:48:57;;;;;;;12.15;7.97;;;;;;;7.60;80.40;99603.31;334823;28;18853;-74
2023/04/26 00:49:15;;;;;;;12.00;7.85;;;;;;;7.61;80.28;99599.00;330018;28;18457;-74
2023/04/26 00:49:27;;;;;;;12.70;7.75;;;;;;;7.63;80.40;99596.41;330511;28;17848;-74
2023/04/26 00:49:40;;;;;;;14.70;7.97;;;;;;;7.64;80.56;99595.50;331701;28;18116;-74
2023/04/26 00:49:52;;;;;;;14.50;7.88;;;;;;;7.63;80.33;99593.81;335299;28;4511;-73
2023/04/26 00:50:06;;;;;;;14.00;7.85;;;;;;;7.63;80.69;99592.06;331346;28;17890;-74
2023/04/26 00:50:19;;;;;;;12.85;7.57;;;;;;;7.64;80.65;99600.66;333000;28;4559;-74
2023/04/26 00:50:31;;;;;;;12.63;7.43;;;;;;;7.65;80.39;99594.63;334693;28;17152;-74
2023/04/26 00:50:44;;;;;;;12.82;7.57;;;;;;;7.65;80.26;99597.22;335622;28;4669;-75
2023/04/26 00:50:56;;;;;;;13.25;8.10;;;;;;;7.66;80.42;99597.16;331545;29;19325;-74
2023/04/26 00:51:08;;;;;;;13.20;8.13;;;;;;;7.66;80.28;99596.31;333440;29;4654;-74
2023/04/26 00:51:20;;;;;;;12.98;8.15;;;;;;;7.64;80.56;99593.75;330111;29;19246;-73
2023/04/26 00:51:32;;;;;;;13.27;7.97;;;;;;;7.63;80.40;99596.41;332905;29;4742;-74
2023/04/26 00:51:46;;;;;;;13.63;7.88;;;;;;;7.59;80.65;99593.00;329809;29;18045;-74
2023/04/26 00:51:58;;;;;;;12.98;7.80;;;;;;;7.59;80.98;99596.44;334373;29;5504;-74
2023/04/26 00:52:10;;;;;;;13.05;7.72;;;;;;;7.59;80.75;99596.44;331206;29;17552;-73
2023/04/26 00:52:23;;;;;;;11.75;7.70;;;;;;;7.59;80.59;99600.78;333729;29;5235;-74
2023/04/26 00:52:35;;;;;;;12.23;8.13;;;;;;;7.57;80.92;99598.22;331385;29;19010;-74
2023/04/26 00:52:49;;;;;;;12.80;8.55;;;;;;;7.59;80.82;99595.59;335038;28;4703;-74
2023/04/26 00:53:01;;;;;;;13.30;8.35;;;;;;;7.58;81.17;99589.56;332708;28;18726;-74
2023/04/26 00:53:15;;;;;;;13.57;7.85;;;;;;;7.60;80.66;99602.47;335033;28;5093;-75
2023/04/26 00:53:29;;;;;;;13.05;8.10;;;;;;;7.58;80.91;99593.88;332251;28;18224;-74
2023/04/26 00:53:41;;;;;;;12.25;7.90;;;;;;;7.57;80.72;99593.03;331616;28;17955;-74
2023/04/26 00:53:53;;;;;;;12.70;7.45;;;;;;;7.59;80.54;99595.59;336232;28;8172;-74
2023/04/26 00:54:05;;;;;;;13.43;7.57;;;;;;;7.60;80.38;99592.13;334013;28;17528;-74
2023/04/26 00:54:19;;;;;;;13.48;7.63;;;;;;;7.60;80.70;99595.53;337285;28;5307;-74
2023/04/26 00:54:31;;;;;;;12.30;7.75;;;;;;;7.62;80.93;99594.69;331770;28;17777;-73
2023/04/26 00:54:43;;;;;;;12.63;8.27;;;;;;;7.59;80.76;99596.44;334657;29;5110;-74
2023/04/26 00:54:56;;;;;;;13.52;8.38;;;;;;;7.60;80.71;99597.28;331160;29;18870;-74
2023/04/26 00:55:09;;;;;;;13.10;8.00;;;;;;;7.59;81.04;99596.44;334212;29;4737;-74
2023/04/26 00:55:21;;;;;;;11.23;7.53;;;;;;;7.58;80.70;99597.31;328382;29;18039;-74
2023/04/26 00:55:34;;;;;;;11.65;7.90;;;;;;;7.59;80.71;99596.44;332578;28;4523;-74
2023/04/26 00:55:47;;;;;;;12.73;8.07;;;;;;;7.60;80.65;99603.31;334779;28;5513;-74
2023/04/26 00:56:00;;;;;;;12.98;8.23;;;;;;;7.60;80.52;99597.28;332778;28;9654;-74
2023/04/26 00:56:14;;;;;;;12.65;7.80;;;;;;;7.58;80.55;99594.72;333968;29;5236;-74
2023/04/26 00:56:26;;;;;;;12.35;7.60;;;;;;;7.58;80.51;99594.72;331411;29;18221;-73
2023/04/26 00:56:39;;;;;;;12.20;7.68;;;;;;;7.57;80.16;99603.38;334808;29;4551;-74
2023/04/26 00:56:52;;;;;;;12.23;7.77;;;;;;;7.58;80.18;99596.47;333298;28;18091;-74
2023/04/26 00:57:05;;;;;;;14.23;8.05;;;;;;;7.58;80.09;99597.31;332417;28;4689;-75
2023/04/26 00:57:18;;;;;;;14.80;8.23;;;;;;;7.59;80.29;99595.59;334883;28;4716;-74
2023/04/26 00:57:30;;;;;;;12.55;8.05;;;;;;;7.58;80.34;99605.06;332152;28;7717;-74
2023/04/26 00:57:44;;;;;;;11.77;7.55;;;;;;;7.59;79.95;99596.44;334808;28;5292;-74
2023/04/26 00:57:56;;;;;;;12.15;7.47;;;;;;;7.58;80.09;99597.31;331695;28;18065;-74
2023/04/26 00:58:08;;;;;;;12.77;8.00;;;;;;;7.57;80.56;99592.19;334831;28;5038;-73
2023/04/26 00:58:20;;;;;;;11.65;7.85;;;;;;;7.52;80.52;99597.44;331510;28;18512;-73
2023/04/26 00:58:32;;;;;;;13.10;7.90;;;;;;;7.53;80.49;99601.75;334320;28;4537;-74
2023/04/26 00:58:45;;;;;;;14.10;8.32;;;;;;;7.52;80.50;99600.03;331970;28;17795;-74
2023/04/26 00:58:57;;;;;;;15.32;8.80;;;;;;;7.51;80.49;99608.69;336002;28;4721;-75
2023/04/26 00:59:09;;;;;;;13.68;8.50;;;;;;;7.47;81.06;99601.88;333523;28;5688;-75
2023/04/26 00:59:21;;;;;;;11.75;8.05;;;;;;;7.45;80.98;99598.47;335792;28;5437;-74
2023/04/26 00:59:34;;;;;;;12.45;7.70;;;;;;;7.45;80.94;99602.81;333773;28;4534;-74
2023/04/26 00:59:48;;;;;;;12.77;7.90;;;;;;;7.45;80.69;99607.97;331658;28;18340;-74
2023/04/26 01:00:02;;;;;;;12.90;7.95;;;;;;;7.46;81.08;99605.34;331834;28;17981;-73